createdAt,value
2019-04-06T00:02:15.883Z,26.77
2019-04-06T00:04:45.626Z,27.17
2019-04-06T00:07:15.373Z,26.03
2019-04-06T00:09:45.016Z,33.37
2019-04-06T00:12:14.754Z,24.77
2019-04-06T00:14:46.274Z,27.07
2019-04-06T00:17:15.937Z,30.10
2019-04-06T00:19:45.694Z,27.43
2019-04-06T00:22:15.423Z,33.47
2019-04-06T00:24:45.445Z,29.70
2019-04-06T00:27:15.235Z,25.87
2019-04-06T00:29:45.067Z,28.33
2019-04-06T00:32:36.429Z,26.73
2019-04-06T00:35:07.118Z,28.43
2019-04-06T00:37:36.941Z,31.97
2019-04-06T00:40:07.099Z,32.20
2019-04-06T00:42:37.047Z,29.47
2019-04-06T00:45:06.980Z,28.27
2019-04-06T00:47:39.434Z,26.97
2019-04-06T00:50:09.504Z,29.73
2019-04-06T00:52:39.270Z,31.50
2019-04-06T00:55:09.048Z,28.67
2019-04-06T00:57:38.734Z,31.07
2019-04-06T01:00:08.846Z,32.00
2019-04-06T01:02:38.750Z,26.13
2019-04-06T01:05:08.730Z,28.67
2019-04-06T01:07:38.480Z,27.23
2019-04-06T01:10:08.338Z,33.47
2019-04-06T01:12:38.089Z,27.80
2019-04-06T01:15:09.554Z,28.43
2019-04-06T01:17:39.300Z,27.37
2019-04-06T01:20:09.169Z,31.43
2019-04-06T01:22:38.888Z,33.70
2019-04-06T01:25:09.309Z,29.30
2019-04-06T01:27:39.213Z,38.23
2019-04-06T01:30:09.923Z,34.57
2019-04-06T01:32:39.665Z,26.50
2019-04-06T01:35:10.801Z,27.80
2019-04-06T01:37:40.711Z,28.27
2019-04-06T01:40:10.521Z,33.17
2019-04-06T01:42:40.341Z,29.73
2019-04-06T01:45:11.205Z,28.63
2019-04-06T01:47:41.046Z,29.43
2019-04-06T01:50:11.001Z,39.70
2019-04-06T01:52:40.817Z,32.60
2019-04-06T01:55:10.839Z,29.27
2019-04-06T01:57:41.079Z,30.40
2019-04-06T02:00:12.507Z,34.07
2019-04-06T02:02:44.548Z,27.10
2019-04-06T02:05:14.698Z,31.20
2019-04-06T02:07:44.463Z,34.40
2019-04-06T02:10:14.530Z,32.27
2019-04-06T02:12:44.233Z,28.13
2019-04-06T02:15:15.634Z,37.57
2019-04-06T02:17:46.322Z,40.37
2019-04-06T02:20:16.837Z,31.60
2019-04-06T02:22:46.629Z,35.27
2019-04-06T02:25:16.393Z,31.23
2019-04-06T02:27:46.174Z,28.67
2019-04-06T02:30:37.944Z,28.47
2019-04-06T02:33:20.113Z,27.17
2019-04-06T02:36:26.988Z,28.87
2019-04-06T02:39:10.542Z,21.83
2019-04-06T02:41:57.032Z,29.87
2019-04-06T02:44:26.775Z,28.40
2019-04-06T02:46:56.552Z,27.93
2019-04-06T02:49:26.287Z,29.63
2019-04-06T02:51:56.010Z,27.30
2019-04-06T02:54:25.728Z,26.23
2019-04-06T02:56:55.609Z,33.47
2019-04-06T02:59:25.786Z,30.03
2019-04-06T03:01:55.664Z,27.70
2019-04-06T03:04:25.634Z,32.10
2019-04-06T03:06:55.559Z,27.97
2019-04-06T03:09:25.356Z,29.47
2019-04-06T03:11:55.084Z,26.13
2019-04-06T03:14:24.867Z,35.33
2019-04-06T03:16:54.751Z,27.57
2019-04-06T03:19:24.635Z,37.73
2019-04-06T03:21:54.425Z,33.63
2019-04-06T03:24:24.224Z,32.17
2019-04-06T03:27:02.134Z,29.90
2019-04-06T03:29:25.589Z,28.70
2019-04-06T03:31:55.387Z,28.60
2019-04-06T03:34:25.107Z,27.80
2019-04-06T03:36:54.844Z,32.20
2019-04-06T03:39:24.759Z,31.50
2019-04-06T03:41:54.462Z,30.90
2019-04-06T03:44:24.240Z,28.50
2019-04-06T03:46:56.137Z,35.33
2019-04-06T03:49:25.913Z,29.10
2019-04-06T03:51:57.232Z,33.73
2019-04-06T03:54:27.044Z,28.47
2019-04-06T03:56:56.878Z,28.53
2019-04-06T03:59:26.588Z,27.77
2019-04-06T04:01:56.322Z,30.67
2019-04-06T04:04:25.953Z,34.40
2019-04-06T04:06:55.829Z,35.63
2019-04-06T04:09:28.255Z,33.13
2019-04-06T04:11:58.069Z,37.17
2019-04-06T04:14:27.765Z,31.33
2019-04-06T04:16:57.446Z,30.53
2019-04-06T04:19:27.284Z,37.27
2019-04-06T04:21:57.169Z,37.57
2019-04-06T04:24:28.929Z,39.00
2019-04-06T04:26:58.763Z,39.07
2019-04-06T04:29:28.472Z,42.07
2019-04-06T04:31:58.282Z,43.93
2019-04-06T04:34:27.997Z,43.27
2019-04-06T04:36:57.970Z,39.57
2019-04-06T04:39:27.659Z,32.13
2019-04-06T04:41:57.515Z,36.33
2019-04-06T04:44:27.897Z,26.80
2019-04-06T04:46:57.749Z,30.77
2019-04-06T04:49:27.467Z,33.77
2019-04-06T04:51:57.177Z,26.20
2019-04-06T04:54:26.908Z,32.57
2019-04-06T04:56:59.438Z,34.50
2019-04-06T04:59:29.233Z,34.27
2019-04-06T05:01:58.992Z,27.47
2019-04-06T05:04:28.804Z,26.27
2019-04-06T05:06:58.596Z,28.03
2019-04-06T05:09:28.297Z,32.27
2019-04-06T05:11:58.054Z,34.77
2019-04-06T05:14:57.634Z,27.47
2019-04-06T05:17:27.766Z,26.67
2019-04-06T05:19:57.479Z,34.57
2019-04-06T05:22:33.233Z,32.13
2019-04-06T05:25:02.940Z,33.93
2019-04-06T05:27:32.714Z,28.87
2019-04-06T05:30:02.457Z,31.03
2019-04-06T05:32:32.115Z,30.73
2019-04-06T05:35:02.028Z,26.03
2019-04-06T05:37:31.890Z,26.03
2019-04-06T05:40:01.619Z,33.60
2019-04-06T05:42:31.306Z,32.13
2019-04-06T05:45:01.223Z,30.40
2019-04-06T05:47:31.087Z,30.37
2019-04-06T05:50:00.823Z,29.30
2019-04-06T05:52:30.600Z,28.13
2019-04-06T05:55:01.330Z,26.97
2019-04-06T05:57:32.096Z,24.77
2019-04-06T06:00:02.744Z,28.23
2019-04-06T06:02:32.441Z,27.40
2019-04-06T06:05:02.566Z,31.40
2019-04-06T06:07:34.784Z,28.90
2019-04-06T06:10:04.912Z,27.37
2019-04-06T06:12:34.722Z,28.13
2019-04-06T06:15:05.193Z,24.37
2019-04-06T06:17:35.021Z,29.97
2019-04-06T06:20:04.917Z,29.40
2019-04-06T06:22:34.836Z,34.23
2019-04-06T06:25:05.740Z,27.90
2019-04-06T06:27:36.131Z,28.60
2019-04-06T06:30:07.204Z,26.97
2019-04-06T06:32:36.990Z,28.80
2019-04-06T06:35:06.855Z,31.63
2019-04-06T06:37:37.790Z,27.00
2019-04-06T06:40:08.826Z,24.33
2019-04-06T06:42:39.984Z,27.90
2019-04-06T06:45:10.300Z,26.40
2019-04-06T06:47:40.164Z,26.97
2019-04-06T06:50:09.871Z,26.77
2019-04-06T06:52:39.673Z,24.57
2019-04-06T06:55:09.611Z,27.17
2019-04-06T06:57:39.545Z,28.63
2019-04-06T07:00:09.571Z,26.23
2019-04-06T07:02:39.281Z,26.30
2019-04-06T07:05:10.549Z,32.80
2019-04-06T07:07:40.325Z,26.17
2019-04-06T07:10:10.485Z,31.80
2019-04-06T07:12:40.233Z,27.53
2019-04-06T07:15:12.009Z,26.67
2019-04-06T07:17:41.885Z,27.13
2019-04-06T07:20:12.023Z,28.47
2019-04-06T07:22:42.252Z,29.57
2019-04-06T07:25:18.234Z,28.03
2019-04-06T07:27:48.451Z,28.73
2019-04-06T07:30:21.001Z,27.97
2019-04-06T07:32:50.848Z,28.37
2019-04-06T07:35:20.584Z,31.60
2019-04-06T07:37:53.079Z,34.73
2019-04-06T07:40:23.104Z,31.80
2019-04-06T07:42:53.454Z,27.77
2019-04-06T07:45:24.819Z,27.37
2019-04-06T07:47:55.305Z,24.87
2019-04-06T07:50:25.570Z,25.77
2019-04-06T07:52:56.444Z,30.63
2019-04-06T07:55:26.257Z,30.17
2019-04-06T07:57:58.665Z,24.87
2019-04-06T08:00:31.590Z,26.77
2019-04-06T08:03:01.765Z,41.70
2019-04-06T08:05:36.697Z,29.33
2019-04-06T08:08:10.738Z,25.93
2019-04-06T08:10:40.966Z,28.43
2019-04-06T08:13:11.036Z,31.87
2019-04-06T08:15:44.563Z,26.50
2019-04-06T08:18:14.320Z,27.83
2019-04-06T08:20:44.236Z,23.57
2019-04-06T08:23:14.373Z,28.23
2019-04-06T08:25:44.193Z,26.53
2019-04-06T08:28:14.003Z,28.00
2019-04-06T08:30:46.026Z,28.10
2019-04-06T08:33:18.167Z,23.37
2019-04-06T08:35:48.216Z,24.00
2019-04-06T08:38:18.114Z,23.90
2019-04-06T08:40:47.891Z,25.90
2019-04-06T08:43:17.719Z,30.17
2019-04-06T08:45:47.565Z,26.23
2019-04-06T08:48:17.457Z,23.37
2019-04-06T08:50:47.267Z,22.60
2019-04-06T08:53:17.022Z,26.50
2019-04-06T08:55:46.824Z,23.83
2019-04-06T08:58:16.718Z,24.40
2019-04-06T09:00:46.490Z,19.37
2019-04-06T09:03:16.217Z,19.43
2019-04-06T09:05:46.018Z,18.33
2019-04-06T09:08:15.854Z,19.70
2019-04-06T09:10:45.862Z,19.13
2019-04-06T09:13:20.426Z,25.80
2019-04-06T09:15:52.032Z,22.93
2019-04-06T09:18:22.310Z,18.87
2019-04-06T09:20:52.662Z,23.07
2019-04-06T09:23:22.500Z,20.67
2019-04-06T09:25:52.213Z,17.37
2019-04-06T09:28:21.886Z,20.87
2019-04-06T09:30:51.848Z,18.80
2019-04-06T09:33:21.883Z,25.23
2019-04-06T09:35:53.401Z,23.30
2019-04-06T09:38:23.168Z,16.00
2019-04-06T09:40:53.127Z,17.70
2019-04-06T09:43:23.255Z,20.43
2019-04-06T09:46:14.946Z,22.40
2019-04-06T09:49:12.501Z,20.87
2019-04-06T09:52:04.137Z,17.47
2019-04-06T09:54:55.720Z,18.00
2019-04-06T09:57:53.410Z,16.33
2019-04-06T10:00:48.176Z,21.70
2019-04-06T10:03:51.686Z,23.57
2019-04-06T10:06:43.285Z,20.33
2019-04-06T10:09:24.826Z,19.33
2019-04-06T10:12:12.336Z,27.83
2019-04-06T10:14:52.904Z,19.27
2019-04-06T10:17:41.642Z,19.70
2019-04-06T10:20:25.097Z,19.20
2019-04-06T10:23:16.714Z,14.33
2019-04-06T10:26:00.987Z,19.47
2019-04-06T10:28:44.811Z,16.20
2019-04-06T10:31:33.675Z,15.73
2019-04-06T10:34:25.683Z,19.30
2019-04-06T10:37:10.021Z,16.40
2019-04-06T10:40:07.732Z,19.17
2019-04-06T10:43:14.737Z,21.07
2019-04-06T10:45:54.647Z,17.20
2019-04-06T10:48:41.586Z,15.70
2019-04-06T10:51:16.666Z,16.73
2019-04-06T10:54:08.442Z,22.17
2019-04-06T10:56:54.856Z,18.48
2019-04-06T10:59:43.530Z,17.77
2019-04-06T11:02:41.308Z,16.45
2019-04-06T11:05:25.368Z,16.87
2019-04-06T11:08:23.226Z,16.02
2019-04-06T11:11:17.954Z,18.20
2019-04-06T11:14:02.413Z,13.50
2019-04-06T11:16:47.816Z,15.43
2019-04-06T11:19:50.892Z,19.17
2019-04-06T11:22:39.553Z,20.08
2019-04-06T11:25:41.857Z,20.85
2019-04-06T11:28:25.805Z,18.60
2019-04-06T11:31:26.711Z,16.85
2019-04-06T11:34:15.371Z,17.80
2019-04-06T11:37:02.806Z,16.20
2019-04-06T11:39:54.322Z,13.65
2019-04-06T11:42:41.858Z,14.38
2019-04-06T11:45:19.014Z,13.00
2019-04-06T11:48:10.622Z,16.05
2019-04-06T11:51:11.305Z,17.30
2019-04-06T11:54:08.954Z,14.45
2019-04-06T11:56:53.376Z,17.40
2019-04-06T11:59:45.289Z,18.27
2019-04-06T12:02:25.389Z,18.17
2019-04-06T12:05:20.725Z,16.20
2019-04-06T12:08:09.548Z,12.20
2019-04-06T12:10:56.525Z,11.35
2019-04-06T12:13:59.902Z,14.63
2019-04-06T12:16:51.123Z,16.30
2019-04-06T12:19:47.215Z,14.65
2019-04-06T12:22:24.386Z,15.50
2019-04-06T12:25:10.460Z,14.63
2019-04-06T12:27:58.048Z,17.80
2019-04-06T12:30:43.578Z,14.98
2019-04-06T12:33:42.676Z,19.52
2019-04-06T12:36:40.098Z,21.27
2019-04-06T12:39:52.238Z,15.18
2019-04-06T12:42:40.465Z,15.63
2019-04-06T12:45:27.688Z,15.85
2019-04-06T12:48:14.642Z,17.15
2019-04-06T12:51:18.286Z,18.23
2019-04-06T12:53:56.961Z,14.38
2019-04-06T12:56:34.364Z,18.20
2019-04-06T12:59:21.105Z,17.87
2019-04-06T13:02:03.642Z,18.07
2019-04-06T13:04:44.932Z,18.55
2019-04-06T13:07:45.528Z,14.70
2019-04-06T13:10:25.342Z,17.55
2019-04-06T13:13:05.090Z,26.50
2019-04-06T13:15:49.314Z,15.18
2019-04-06T13:18:38.181Z,15.72
2019-04-06T13:21:14.879Z,17.30
2019-04-06T13:24:09.590Z,17.77
2019-04-06T13:27:00.983Z,16.52
2019-04-06T13:30:07.727Z,15.85
2019-04-06T13:32:57.219Z,14.65
2019-04-06T13:35:57.031Z,17.15
2019-04-06T13:38:44.150Z,19.80
2019-04-06T13:41:35.307Z,26.70
2019-04-06T13:44:30.223Z,17.17
2019-04-06T13:47:13.477Z,17.32
2019-04-06T13:50:08.463Z,21.65
2019-04-06T13:53:02.975Z,17.27
2019-04-06T13:55:48.696Z,15.90
2019-04-06T13:58:30.520Z,15.72
2019-04-06T14:01:16.109Z,14.45
2019-04-06T14:03:58.134Z,16.07
2019-04-06T14:06:45.174Z,15.88
2019-04-06T14:09:51.621Z,16.45
2019-04-06T14:12:40.508Z,15.25
2019-04-06T14:15:29.510Z,17.40
2019-04-06T14:18:15.774Z,23.65
2019-04-06T14:21:24.240Z,21.12
2019-04-06T14:24:13.842Z,16.12
2019-04-06T14:27:14.432Z,16.02
2019-04-06T14:29:54.905Z,17.20
2019-04-06T14:32:42.194Z,17.40
2019-04-06T14:35:30.406Z,20.77
2019-04-06T14:38:36.611Z,20.55
2019-04-06T14:41:27.177Z,14.95
2019-04-06T14:44:08.397Z,18.77
2019-04-06T14:46:55.638Z,18.42
2019-04-06T14:49:37.869Z,18.02
2019-04-06T14:52:32.222Z,19.65
2019-04-06T14:55:24.475Z,17.15
2019-04-06T14:58:03.693Z,17.32
2019-04-06T15:00:50.830Z,15.85
2019-04-06T15:03:37.677Z,18.85
2019-04-06T15:06:29.313Z,15.75
2019-04-06T15:09:17.974Z,14.55
2019-04-06T15:12:06.577Z,17.17
2019-04-06T15:14:58.345Z,17.17
2019-04-06T15:17:40.106Z,17.98
2019-04-06T15:20:16.191Z,15.55
2019-04-06T15:23:03.738Z,13.30
2019-04-06T15:25:53.311Z,14.40
2019-04-06T15:28:37.158Z,13.95
2019-04-06T15:31:24.126Z,16.97
2019-04-06T15:34:28.334Z,14.83
2019-04-06T15:37:09.613Z,13.53
2019-04-06T15:40:01.168Z,15.05
2019-04-06T15:42:39.173Z,20.55
2019-04-06T15:45:26.968Z,12.40
2019-04-06T15:48:36.504Z,17.37
2019-04-06T15:51:06.318Z,14.43
2019-04-06T15:53:54.982Z,13.58
2019-04-06T15:56:41.082Z,13.60
2019-04-06T15:59:20.411Z,15.50
2019-04-06T16:02:03.850Z,17.42
2019-04-06T16:04:46.035Z,20.08
2019-04-06T16:07:33.616Z,20.32
2019-04-06T16:10:31.738Z,20.27
2019-04-06T16:13:18.952Z,13.10
2019-04-06T16:15:59.284Z,17.52
2019-04-06T16:18:43.231Z,19.23
2019-04-06T16:21:30.126Z,17.60
2019-04-06T16:24:17.355Z,14.07
2019-04-06T16:27:15.121Z,16.32
2019-04-06T16:30:03.765Z,20.75
2019-04-06T16:32:48.531Z,15.98
2019-04-06T16:35:39.913Z,21.20
2019-04-06T16:38:34.488Z,15.28
2019-04-06T16:41:26.557Z,15.58
2019-04-06T16:44:20.925Z,17.07
2019-04-06T16:47:18.430Z,17.45
2019-04-06T16:50:09.828Z,13.60
2019-04-06T16:52:58.603Z,17.20
2019-04-06T16:55:53.521Z,18.90
2019-04-06T16:58:54.204Z,18.90
2019-04-06T17:01:45.787Z,17.65
2019-04-06T17:04:44.241Z,18.25
2019-04-06T17:07:31.246Z,16.67
2019-04-06T17:10:26.317Z,17.98
2019-04-06T17:13:15.001Z,19.67
2019-04-06T17:16:03.561Z,19.37
2019-04-06T17:18:47.096Z,14.87
2019-04-06T17:21:24.015Z,23.90
2019-04-06T17:24:15.388Z,21.55
2019-04-06T17:27:06.737Z,27.95
2019-04-06T17:30:10.459Z,19.62
2019-04-06T17:32:58.070Z,19.45
2019-04-06T17:35:36.527Z,20.88
2019-04-06T17:38:31.062Z,17.77
2019-04-06T17:41:26.033Z,23.10
2019-04-06T17:44:26.690Z,16.12
2019-04-06T17:47:30.181Z,19.50
2019-04-06T17:50:23.032Z,18.65
2019-04-06T17:53:12.129Z,19.27
2019-04-06T17:56:00.019Z,16.30
2019-04-06T17:58:55.653Z,20.93
2019-04-06T18:01:59.262Z,21.03
2019-04-06T18:04:54.804Z,22.60
2019-04-06T18:07:47.768Z,24.05
2019-04-06T18:10:30.920Z,24.77
2019-04-06T18:13:18.074Z,25.83
2019-04-06T18:15:48.394Z,26.03
2019-04-06T18:18:18.588Z,30.40
2019-04-06T18:20:48.435Z,31.93
2019-04-06T18:23:18.743Z,31.47
2019-04-06T18:25:50.792Z,27.27
2019-04-06T18:28:20.545Z,29.00
2019-04-06T18:30:57.716Z,26.57
2019-04-06T18:33:30.007Z,27.63
2019-04-06T18:35:59.709Z,20.47
2019-04-06T18:38:34.303Z,24.73
2019-04-06T18:41:04.795Z,27.70
2019-04-06T18:43:35.484Z,27.07
2019-04-06T18:46:05.539Z,26.80
2019-04-06T18:48:35.364Z,26.93
2019-04-06T18:51:05.842Z,28.63
2019-04-06T18:53:35.810Z,24.37
2019-04-06T18:56:05.880Z,27.40
2019-04-06T18:58:36.856Z,34.27
2019-04-06T19:01:06.778Z,33.73
2019-04-06T19:03:38.128Z,31.00
2019-04-06T19:06:08.038Z,31.57
2019-04-06T19:08:37.797Z,37.37
2019-04-06T19:11:07.488Z,32.57
2019-04-06T19:13:37.588Z,41.70
2019-04-06T19:16:07.491Z,40.97
2019-04-06T19:18:38.663Z,34.43
2019-04-06T19:21:08.693Z,37.73
2019-04-06T19:23:38.926Z,37.63
2019-04-06T19:26:08.876Z,40.20
2019-04-06T19:28:38.886Z,51.23
2019-04-06T19:31:08.743Z,42.57
2019-04-06T19:33:38.706Z,36.57
2019-04-06T19:36:08.740Z,38.80
2019-04-06T19:38:38.654Z,37.90
2019-04-06T19:41:09.238Z,39.30
2019-04-06T19:43:39.371Z,41.70
2019-04-06T19:46:09.451Z,33.00
2019-04-06T19:48:40.761Z,30.47
2019-04-06T19:51:10.817Z,38.80
2019-04-06T19:53:40.505Z,36.23
2019-04-06T19:56:10.928Z,32.40
2019-04-06T19:58:40.863Z,38.17
2019-04-06T20:01:10.698Z,37.17
2019-04-06T20:03:40.672Z,30.83
2019-04-06T20:06:13.454Z,34.00
2019-04-06T20:08:46.426Z,36.63
2019-04-06T20:11:19.766Z,37.13
2019-04-06T20:13:49.870Z,36.47
2019-04-06T20:16:20.113Z,41.70
2019-04-06T20:18:49.995Z,40.40
2019-04-06T20:21:19.840Z,42.67
2019-04-06T20:23:49.635Z,39.40
2019-04-06T20:26:21.256Z,37.17
2019-04-06T20:28:52.656Z,40.67
2019-04-06T20:31:27.239Z,40.50
2019-04-06T20:33:57.476Z,37.23
2019-04-06T20:36:27.233Z,39.57
2019-04-06T20:38:56.999Z,41.30
2019-04-06T20:41:26.869Z,35.73
2019-04-06T20:43:58.954Z,36.90
2019-04-06T20:46:28.757Z,42.03
2019-04-06T20:48:58.947Z,32.13
2019-04-06T20:51:29.161Z,38.97
2019-04-06T20:53:59.170Z,38.80
2019-04-06T20:56:29.783Z,36.17
2019-04-06T20:58:59.667Z,35.63
2019-04-06T21:01:30.097Z,34.50
2019-04-06T21:04:02.859Z,38.70
2019-04-06T21:06:31.482Z,34.83
2019-04-06T21:09:01.276Z,37.13
2019-04-06T21:11:31.294Z,41.20
2019-04-06T21:14:03.391Z,34.83
2019-04-06T21:16:33.170Z,36.43
2019-04-06T21:19:02.865Z,40.07
2019-04-06T21:21:32.670Z,41.50
2019-04-06T21:24:02.336Z,40.37
2019-04-06T21:26:32.518Z,34.30
2019-04-06T21:29:04.899Z,39.57
2019-04-06T21:31:35.219Z,35.33
2019-04-06T21:34:12.037Z,50.23
2019-04-06T21:36:36.663Z,44.30
2019-04-06T21:39:08.098Z,43.40
2019-04-06T21:41:38.412Z,42.43
2019-04-06T21:44:11.228Z,48.73
2019-04-06T21:46:41.307Z,46.10
2019-04-06T21:49:12.415Z,39.87
2019-04-06T21:51:42.084Z,39.67
2019-04-06T21:54:12.560Z,44.50
2019-04-06T21:56:42.432Z,37.50
2019-04-06T21:59:12.187Z,46.67
2019-04-06T22:01:43.427Z,44.83
2019-04-06T22:04:23.040Z,46.33
2019-04-06T22:06:45.064Z,41.17
2019-04-06T22:09:14.880Z,38.17
2019-04-06T22:11:44.613Z,38.63
2019-04-06T22:14:14.852Z,39.73
2019-04-06T22:16:44.651Z,36.70
2019-04-06T22:19:14.626Z,45.03
2019-04-06T22:21:44.386Z,42.80
2019-04-06T22:24:14.876Z,43.10
2019-04-06T22:26:44.648Z,41.87
2019-04-06T22:29:14.356Z,39.10
2019-04-06T22:31:44.077Z,34.80
2019-04-06T22:34:13.760Z,34.23
2019-04-06T22:36:43.605Z,39.40
2019-04-06T22:39:14.513Z,39.87
2019-04-06T22:41:44.197Z,71.30
2019-04-06T22:44:14.389Z,48.07
2019-04-06T22:46:44.091Z,36.90
2019-04-06T22:49:14.593Z,34.93
2019-04-06T22:51:44.288Z,37.43
2019-04-06T22:54:14.032Z,35.73
2019-04-06T22:56:44.099Z,34.97
2019-04-06T22:59:14.041Z,39.97
2019-04-06T23:01:43.757Z,35.60
2019-04-06T23:04:47.532Z,39.23
2019-04-06T23:07:16.702Z,39.80
2019-04-06T23:09:48.310Z,35.63
2019-04-06T23:12:18.057Z,34.53
2019-04-06T23:14:47.784Z,36.50
2019-04-06T23:17:18.003Z,36.13
2019-04-06T23:19:48.426Z,37.50
2019-04-06T23:22:18.263Z,37.57
2019-04-06T23:24:48.050Z,40.87
2019-04-06T23:27:17.744Z,46.37
2019-04-06T23:29:47.400Z,49.00
2019-04-06T23:32:17.118Z,43.33
2019-04-06T23:34:58.360Z,42.33
2019-04-06T23:37:18.453Z,49.93
2019-04-06T23:39:48.248Z,35.23
2019-04-06T23:42:17.963Z,43.13
2019-04-06T23:44:47.794Z,38.90
2019-04-06T23:47:18.109Z,42.47
2019-04-06T23:49:47.874Z,44.67
2019-04-06T23:52:17.707Z,42.63
2019-04-06T23:54:48.662Z,41.13
2019-04-06T23:57:18.696Z,49.97
2019-04-06T23:59:48.917Z,40.50
